sensor_id;sensor_type;location;lat;lon;timestamp;temperature;humidity
63047;DHT22;62025;39.238;9.126;2023-02-28T00:01:23;13.50;77.40
63047;DHT22;62025;39.238;9.126;2023-02-28T00:03:49;13.50;77.30
63047;DHT22;62025;39.238;9.126;2023-02-28T00:06:16;13.50;77.10
63047;DHT22;62025;39.238;9.126;2023-02-28T00:08:42;13.50;77.10
63047;DHT22;62025;39.238;9.126;2023-02-28T00:11:11;13.50;77.00
63047;DHT22;62025;39.238;9.126;2023-02-28T00:13:41;13.50;77.20
63047;DHT22;62025;39.238;9.126;2023-02-28T00:16:18;13.50;77.70
63047;DHT22;62025;39.238;9.126;2023-02-28T00:18:45;13.50;78.00
63047;DHT22;62025;39.238;9.126;2023-02-28T00:21:13;13.60;76.40
63047;DHT22;62025;39.238;9.126;2023-02-28T00:23:39;13.60;74.50
63047;DHT22;62025;39.238;9.126;2023-02-28T00:26:05;13.60;73.00
63047;DHT22;62025;39.238;9.126;2023-02-28T00:28:33;13.50;72.60
63047;DHT22;62025;39.238;9.126;2023-02-28T00:30:59;13.50;72.70
63047;DHT22;62025;39.238;9.126;2023-02-28T00:33:26;13.50;72.50
63047;DHT22;62025;39.238;9.126;2023-02-28T00:36:10;13.40;72.60
63047;DHT22;62025;39.238;9.126;2023-02-28T00:38:38;13.40;72.90
63047;DHT22;62025;39.238;9.126;2023-02-28T00:41:05;13.30;72.80
63047;DHT22;62025;39.238;9.126;2023-02-28T00:43:36;13.40;72.80
63047;DHT22;62025;39.238;9.126;2023-02-28T00:46:03;13.30;72.70
63047;DHT22;62025;39.238;9.126;2023-02-28T00:48:30;13.30;72.80
63047;DHT22;62025;39.238;9.126;2023-02-28T00:50:56;13.20;73.10
63047;DHT22;62025;39.238;9.126;2023-02-28T00:53:22;13.20;73.30
63047;DHT22;62025;39.238;9.126;2023-02-28T00:55:49;13.20;73.10
63047;DHT22;62025;39.238;9.126;2023-02-28T00:58:16;13.20;73.30
63047;DHT22;62025;39.238;9.126;2023-02-28T01:00:42;13.10;73.40
63047;DHT22;62025;39.238;9.126;2023-02-28T01:03:10;13.00;73.70
63047;DHT22;62025;39.238;9.126;2023-02-28T01:05:36;13.00;73.50
63047;DHT22;62025;39.238;9.126;2023-02-28T01:08:02;13.00;73.20
63047;DHT22;62025;39.238;9.126;2023-02-28T01:10:29;13.00;73.40
63047;DHT22;62025;39.238;9.126;2023-02-28T01:12:57;12.90;73.60
63047;DHT22;62025;39.238;9.126;2023-02-28T01:15:23;13.00;73.40
63047;DHT22;62025;39.238;9.126;2023-02-28T01:17:49;12.90;73.30
63047;DHT22;62025;39.238;9.126;2023-02-28T01:20:15;12.90;73.30
63047;DHT22;62025;39.238;9.126;2023-02-28T01:22:42;12.90;73.30
63047;DHT22;62025;39.238;9.126;2023-02-28T01:25:08;12.90;73.10
63047;DHT22;62025;39.238;9.126;2023-02-28T01:27:34;12.80;73.20
63047;DHT22;62025;39.238;9.126;2023-02-28T01:30:02;12.80;73.50
63047;DHT22;62025;39.238;9.126;2023-02-28T01:32:28;12.80;73.70
63047;DHT22;62025;39.238;9.126;2023-02-28T01:34:55;12.80;73.70
63047;DHT22;62025;39.238;9.126;2023-02-28T01:37:22;12.80;73.50
63047;DHT22;62025;39.238;9.126;2023-02-28T01:39:48;12.80;73.70
63047;DHT22;62025;39.238;9.126;2023-02-28T01:42:14;12.70;73.70
63047;DHT22;62025;39.238;9.126;2023-02-28T01:45:03;12.70;73.70
63047;DHT22;62025;39.238;9.126;2023-02-28T01:47:42;12.70;73.60
63047;DHT22;62025;39.238;9.126;2023-02-28T01:50:13;12.60;73.60
63047;DHT22;62025;39.238;9.126;2023-02-28T01:52:42;12.70;73.40
63047;DHT22;62025;39.238;9.126;2023-02-28T01:55:10;12.60;73.40
63047;DHT22;62025;39.238;9.126;2023-02-28T01:57:46;12.60;73.50
63047;DHT22;62025;39.238;9.126;2023-02-28T02:00:18;12.50;73.80
63047;DHT22;62025;39.238;9.126;2023-02-28T02:02:49;12.50;73.90
63047;DHT22;62025;39.238;9.126;2023-02-28T02:05:23;12.60;73.90
63047;DHT22;62025;39.238;9.126;2023-02-28T02:07:56;12.50;74.10
63047;DHT22;62025;39.238;9.126;2023-02-28T02:10:34;12.50;73.80
63047;DHT22;62025;39.238;9.126;2023-02-28T02:13:35;12.50;73.70
63047;DHT22;62025;39.238;9.126;2023-02-28T02:19:53;12.40;73.10
63047;DHT22;62025;39.238;9.126;2023-02-28T02:26:07;12.40;72.50
63047;DHT22;62025;39.238;9.126;2023-02-28T02:35:12;12.30;72.30
63047;DHT22;62025;39.238;9.126;2023-02-28T02:37:29;12.30;72.40
63047;DHT22;62025;39.238;9.126;2023-02-28T02:40:20;12.30;72.00
63047;DHT22;62025;39.238;9.126;2023-02-28T02:42:50;12.30;71.90
63047;DHT22;62025;39.238;9.126;2023-02-28T02:45:43;12.30;71.80
63047;DHT22;62025;39.238;9.126;2023-02-28T02:48:11;12.30;72.00
63047;DHT22;62025;39.238;9.126;2023-02-28T02:50:45;12.30;71.40
63047;DHT22;62025;39.238;9.126;2023-02-28T02:53:18;12.30;71.80
63047;DHT22;62025;39.238;9.126;2023-02-28T02:55:49;12.20;71.90
63047;DHT22;62025;39.238;9.126;2023-02-28T02:58:24;12.20;72.00
63047;DHT22;62025;39.238;9.126;2023-02-28T03:00:59;12.30;71.80
63047;DHT22;62025;39.238;9.126;2023-02-28T03:03:28;12.30;72.20
63047;DHT22;62025;39.238;9.126;2023-02-28T03:06:00;12.30;72.70
63047;DHT22;62025;39.238;9.126;2023-02-28T03:08:29;12.30;72.80
63047;DHT22;62025;39.238;9.126;2023-02-28T03:11:05;12.30;72.60
63047;DHT22;62025;39.238;9.126;2023-02-28T03:27:28;12.10;71.80
63047;DHT22;62025;39.238;9.126;2023-02-28T03:30:00;12.20;71.50
63047;DHT22;62025;39.238;9.126;2023-02-28T03:32:34;12.10;71.60
63047;DHT22;62025;39.238;9.126;2023-02-28T03:35:17;12.10;71.80
63047;DHT22;62025;39.238;9.126;2023-02-28T03:37:58;12.10;72.00
63047;DHT22;62025;39.238;9.126;2023-02-28T03:40:31;12.10;71.80
63047;DHT22;62025;39.238;9.126;2023-02-28T03:43:03;12.10;71.70
63047;DHT22;62025;39.238;9.126;2023-02-28T03:45:35;12.00;71.90
63047;DHT22;62025;39.238;9.126;2023-02-28T03:50:40;12.10;71.30
63047;DHT22;62025;39.238;9.126;2023-02-28T03:55:41;12.00;71.50
63047;DHT22;62025;39.238;9.126;2023-02-28T04:01:44;12.00;71.80
63047;DHT22;62025;39.238;9.126;2023-02-28T04:04:10;12.00;71.90
63047;DHT22;62025;39.238;9.126;2023-02-28T04:06:38;12.00;72.20
63047;DHT22;62025;39.238;9.126;2023-02-28T04:09:06;11.90;72.50
63047;DHT22;62025;39.238;9.126;2023-02-28T04:14:06;11.90;72.70
63047;DHT22;62025;39.238;9.126;2023-02-28T04:16:34;11.90;72.70
63047;DHT22;62025;39.238;9.126;2023-02-28T04:19:03;11.90;72.90
63047;DHT22;62025;39.238;9.126;2023-02-28T04:21:36;11.90;73.00
63047;DHT22;62025;39.238;9.126;2023-02-28T04:24:15;11.90;73.30
63047;DHT22;62025;39.238;9.126;2023-02-28T04:26:45;11.90;73.50
63047;DHT22;62025;39.238;9.126;2023-02-28T04:29:15;11.80;73.50
63047;DHT22;62025;39.238;9.126;2023-02-28T04:31:44;11.90;73.50
63047;DHT22;62025;39.238;9.126;2023-02-28T04:34:10;11.80;73.50
63047;DHT22;62025;39.238;9.126;2023-02-28T04:36:36;11.80;73.50
63047;DHT22;62025;39.238;9.126;2023-02-28T04:39:02;11.80;73.40
63047;DHT22;62025;39.238;9.126;2023-02-28T04:41:29;11.80;73.60
63047;DHT22;62025;39.238;9.126;2023-02-28T04:43:55;11.80;73.60
63047;DHT22;62025;39.238;9.126;2023-02-28T04:46:22;11.80;73.90
63047;DHT22;62025;39.238;9.126;2023-02-28T04:48:48;11.80;74.30
63047;DHT22;62025;39.238;9.126;2023-02-28T04:51:17;11.80;74.30
63047;DHT22;62025;39.238;9.126;2023-02-28T04:53:44;11.70;74.30
63047;DHT22;62025;39.238;9.126;2023-02-28T04:56:14;11.70;74.20
63047;DHT22;62025;39.238;9.126;2023-02-28T04:58:41;11.70;74.30
63047;DHT22;62025;39.238;9.126;2023-02-28T05:01:23;11.70;74.30
63047;DHT22;62025;39.238;9.126;2023-02-28T05:03:53;11.70;74.40
63047;DHT22;62025;39.238;9.126;2023-02-28T05:06:20;11.70;74.60
63047;DHT22;62025;39.238;9.126;2023-02-28T05:08:47;11.70;74.60
63047;DHT22;62025;39.238;9.126;2023-02-28T05:11:16;11.60;74.60
63047;DHT22;62025;39.238;9.126;2023-02-28T05:13:44;11.60;74.60
63047;DHT22;62025;39.238;9.126;2023-02-28T05:16:10;11.60;74.50
63047;DHT22;62025;39.238;9.126;2023-02-28T05:18:37;11.60;74.50
63047;DHT22;62025;39.238;9.126;2023-02-28T05:21:04;11.60;74.40
63047;DHT22;62025;39.238;9.126;2023-02-28T05:23:30;11.60;74.30
63047;DHT22;62025;39.238;9.126;2023-02-28T05:25:56;11.50;74.50
63047;DHT22;62025;39.238;9.126;2023-02-28T05:28:22;11.50;74.30
63047;DHT22;62025;39.238;9.126;2023-02-28T05:30:48;11.40;74.00
63047;DHT22;62025;39.238;9.126;2023-02-28T05:33:14;11.40;73.80
63047;DHT22;62025;39.238;9.126;2023-02-28T05:35:41;11.50;73.60
63047;DHT22;62025;39.238;9.126;2023-02-28T05:38:08;11.20;73.70
63047;DHT22;62025;39.238;9.126;2023-02-28T05:40:34;11.30;73.70
63047;DHT22;62025;39.238;9.126;2023-02-28T05:43:01;11.20;73.90
63047;DHT22;62025;39.238;9.126;2023-02-28T05:45:27;11.30;73.60
63047;DHT22;62025;39.238;9.126;2023-02-28T05:47:56;11.40;73.50
63047;DHT22;62025;39.238;9.126;2023-02-28T05:50:22;11.30;73.50
63047;DHT22;62025;39.238;9.126;2023-02-28T05:52:51;11.30;73.40
63047;DHT22;62025;39.238;9.126;2023-02-28T05:55:17;11.30;73.40
63047;DHT22;62025;39.238;9.126;2023-02-28T05:57:44;11.30;73.20
63047;DHT22;62025;39.238;9.126;2023-02-28T06:00:10;11.30;73.20
63047;DHT22;62025;39.238;9.126;2023-02-28T06:02:40;11.30;73.00
63047;DHT22;62025;39.238;9.126;2023-02-28T06:05:15;11.30;73.00
63047;DHT22;62025;39.238;9.126;2023-02-28T06:07:42;11.30;72.80
63047;DHT22;62025;39.238;9.126;2023-02-28T06:10:10;11.30;73.10
63047;DHT22;62025;39.238;9.126;2023-02-28T06:12:37;11.20;72.70
63047;DHT22;62025;39.238;9.126;2023-02-28T06:15:04;11.30;72.50
63047;DHT22;62025;39.238;9.126;2023-02-28T06:17:30;11.20;72.30
63047;DHT22;62025;39.238;9.126;2023-02-28T06:19:56;11.20;72.20
63047;DHT22;62025;39.238;9.126;2023-02-28T06:22:22;11.10;72.00
63047;DHT22;62025;39.238;9.126;2023-02-28T06:24:48;11.10;71.80
63047;DHT22;62025;39.238;9.126;2023-02-28T06:27:14;11.20;71.40
63047;DHT22;62025;39.238;9.126;2023-02-28T06:29:40;11.00;71.10
63047;DHT22;62025;39.238;9.126;2023-02-28T06:32:06;11.10;70.80
63047;DHT22;62025;39.238;9.126;2023-02-28T06:34:32;11.10;70.70
63047;DHT22;62025;39.238;9.126;2023-02-28T06:36:59;11.20;70.60
63047;DHT22;62025;39.238;9.126;2023-02-28T06:39:30;11.20;70.50
63047;DHT22;62025;39.238;9.126;2023-02-28T06:41:56;11.20;70.30
63047;DHT22;62025;39.238;9.126;2023-02-28T06:44:23;11.20;70.30
63047;DHT22;62025;39.238;9.126;2023-02-28T06:46:49;11.10;70.10
63047;DHT22;62025;39.238;9.126;2023-02-28T06:49:15;11.10;69.90
63047;DHT22;62025;39.238;9.126;2023-02-28T06:51:43;11.10;70.40
63047;DHT22;62025;39.238;9.126;2023-02-28T06:54:13;11.20;70.40
63047;DHT22;62025;39.238;9.126;2023-02-28T06:56:39;11.30;70.00
63047;DHT22;62025;39.238;9.126;2023-02-28T06:59:05;11.10;70.80
63047;DHT22;62025;39.238;9.126;2023-02-28T07:01:31;10.90;72.20
63047;DHT22;62025;39.238;9.126;2023-02-28T07:03:59;10.80;71.30
63047;DHT22;62025;39.238;9.126;2023-02-28T07:06:25;10.70;71.30
63047;DHT22;62025;39.238;9.126;2023-02-28T07:08:52;10.80;70.90
63047;DHT22;62025;39.238;9.126;2023-02-28T07:11:19;10.70;70.90
63047;DHT22;62025;39.238;9.126;2023-02-28T07:13:49;10.70;71.90
63047;DHT22;62025;39.238;9.126;2023-02-28T07:16:16;10.80;71.40
63047;DHT22;62025;39.238;9.126;2023-02-28T07:18:42;10.90;70.70
63047;DHT22;62025;39.238;9.126;2023-02-28T07:21:09;10.80;70.70
63047;DHT22;62025;39.238;9.126;2023-02-28T07:23:37;11.00;70.50
63047;DHT22;62025;39.238;9.126;2023-02-28T07:26:04;10.90;70.40
63047;DHT22;62025;39.238;9.126;2023-02-28T07:28:32;11.00;70.60
63047;DHT22;62025;39.238;9.126;2023-02-28T07:31:06;11.10;71.00
63047;DHT22;62025;39.238;9.126;2023-02-28T07:33:33;11.30;71.60
63047;DHT22;62025;39.238;9.126;2023-02-28T07:36:11;11.20;72.00
63047;DHT22;62025;39.238;9.126;2023-02-28T07:38:39;11.20;72.00
63047;DHT22;62025;39.238;9.126;2023-02-28T07:41:05;11.30;71.90
63047;DHT22;62025;39.238;9.126;2023-02-28T07:43:32;11.30;71.70
63047;DHT22;62025;39.238;9.126;2023-02-28T07:46:03;11.30;71.50
63047;DHT22;62025;39.238;9.126;2023-02-28T07:48:30;11.30;71.40
63047;DHT22;62025;39.238;9.126;2023-02-28T07:50:56;11.30;72.10
63047;DHT22;62025;39.238;9.126;2023-02-28T07:53:22;11.30;71.80
63047;DHT22;62025;39.238;9.126;2023-02-28T07:55:48;11.30;71.60
63047;DHT22;62025;39.238;9.126;2023-02-28T07:58:15;11.30;71.80
63047;DHT22;62025;39.238;9.126;2023-02-28T08:00:41;11.30;72.00
63047;DHT22;62025;39.238;9.126;2023-02-28T08:03:10;11.30;71.50
63047;DHT22;62025;39.238;9.126;2023-02-28T08:05:39;11.30;71.80
63047;DHT22;62025;39.238;9.126;2023-02-28T08:08:06;11.30;72.00
63047;DHT22;62025;39.238;9.126;2023-02-28T08:10:33;11.30;72.30
63047;DHT22;62025;39.238;9.126;2023-02-28T08:12:59;11.30;71.70
63047;DHT22;62025;39.238;9.126;2023-02-28T08:15:25;11.30;71.20
63047;DHT22;62025;39.238;9.126;2023-02-28T08:17:52;11.40;71.10
63047;DHT22;62025;39.238;9.126;2023-02-28T08:20:18;11.40;70.30
63047;DHT22;62025;39.238;9.126;2023-02-28T08:22:44;11.30;70.60
63047;DHT22;62025;39.238;9.126;2023-02-28T08:25:10;11.30;70.30
63047;DHT22;62025;39.238;9.126;2023-02-28T08:27:36;11.10;70.20
63047;DHT22;62025;39.238;9.126;2023-02-28T08:30:03;11.20;69.80
63047;DHT22;62025;39.238;9.126;2023-02-28T08:32:29;11.20;68.10
63047;DHT22;62025;39.238;9.126;2023-02-28T08:34:55;11.20;70.30
63047;DHT22;62025;39.238;9.126;2023-02-28T08:37:22;11.30;70.90
63047;DHT22;62025;39.238;9.126;2023-02-28T08:39:48;11.30;70.90
63047;DHT22;62025;39.238;9.126;2023-02-28T08:42:13;11.30;70.50
63047;DHT22;62025;39.238;9.126;2023-02-28T08:44:40;11.00;71.10
63047;DHT22;62025;39.238;9.126;2023-02-28T08:47:06;11.20;71.40
63047;DHT22;62025;39.238;9.126;2023-02-28T08:49:32;11.20;72.20
63047;DHT22;62025;39.238;9.126;2023-02-28T08:51:58;11.10;72.80
63047;DHT22;62025;39.238;9.126;2023-02-28T08:54:24;11.20;73.10
63047;DHT22;62025;39.238;9.126;2023-02-28T08:56:50;11.10;73.20
63047;DHT22;62025;39.238;9.126;2023-02-28T08:59:17;11.00;74.20
63047;DHT22;62025;39.238;9.126;2023-02-28T09:01:44;11.20;74.30
63047;DHT22;62025;39.238;9.126;2023-02-28T09:04:10;11.30;74.10
63047;DHT22;62025;39.238;9.126;2023-02-28T09:06:37;11.30;73.90
63047;DHT22;62025;39.238;9.126;2023-02-28T09:09:04;11.30;73.90
63047;DHT22;62025;39.238;9.126;2023-02-28T09:11:32;11.00;73.90
63047;DHT22;62025;39.238;9.126;2023-02-28T09:13:58;11.20;73.90
63047;DHT22;62025;39.238;9.126;2023-02-28T09:16:26;11.30;73.40
63047;DHT22;62025;39.238;9.126;2023-02-28T09:18:52;11.50;73.40
63047;DHT22;62025;39.238;9.126;2023-02-28T09:21:18;11.60;73.90
63047;DHT22;62025;39.238;9.126;2023-02-28T09:23:47;11.60;73.70
63047;DHT22;62025;39.238;9.126;2023-02-28T09:26:20;11.70;73.80
63047;DHT22;62025;39.238;9.126;2023-02-28T09:28:48;11.70;73.90
63047;DHT22;62025;39.238;9.126;2023-02-28T09:31:16;11.70;73.80
63047;DHT22;62025;39.238;9.126;2023-02-28T09:33:47;11.80;73.20
63047;DHT22;62025;39.238;9.126;2023-02-28T09:36:14;11.80;72.90
63047;DHT22;62025;39.238;9.126;2023-02-28T09:38:40;11.60;72.50
63047;DHT22;62025;39.238;9.126;2023-02-28T09:41:19;11.60;72.30
63047;DHT22;62025;39.238;9.126;2023-02-28T09:43:50;11.60;72.20
63047;DHT22;62025;39.238;9.126;2023-02-28T09:49:18;11.70;73.00
63047;DHT22;62025;39.238;9.126;2023-02-28T09:51:55;11.80;72.50
63047;DHT22;62025;39.238;9.126;2023-02-28T09:54:28;11.80;72.30
63047;DHT22;62025;39.238;9.126;2023-02-28T10:00:24;11.80;72.70
63047;DHT22;62025;39.238;9.126;2023-02-28T10:03:04;11.80;72.30
63047;DHT22;62025;39.238;9.126;2023-02-28T10:06:32;11.80;72.90
63047;DHT22;62025;39.238;9.126;2023-02-28T10:09:04;11.90;73.40
63047;DHT22;62025;39.238;9.126;2023-02-28T10:11:37;11.80;74.30
63047;DHT22;62025;39.238;9.126;2023-02-28T10:14:14;11.80;75.10
63047;DHT22;62025;39.238;9.126;2023-02-28T10:17:02;11.80;75.60
63047;DHT22;62025;39.238;9.126;2023-02-28T10:22:22;11.80;76.70
63047;DHT22;62025;39.238;9.126;2023-02-28T10:24:51;11.90;76.40
63047;DHT22;62025;39.238;9.126;2023-02-28T10:27:19;11.90;75.80
63047;DHT22;62025;39.238;9.126;2023-02-28T10:32:19;11.90;74.90
63047;DHT22;62025;39.238;9.126;2023-02-28T10:35:19;11.90;75.40
63047;DHT22;62025;39.238;9.126;2023-02-28T10:37:49;12.00;76.10
63047;DHT22;62025;39.238;9.126;2023-02-28T10:43:03;11.80;75.40
63047;DHT22;62025;39.238;9.126;2023-02-28T10:46:01;11.80;75.10
63047;DHT22;62025;39.238;9.126;2023-02-28T10:48:37;11.70;75.40
63047;DHT22;62025;39.238;9.126;2023-02-28T10:51:08;11.80;75.40
63047;DHT22;62025;39.238;9.126;2023-02-28T10:53:45;11.70;75.60
63047;DHT22;62025;39.238;9.126;2023-02-28T10:56:16;11.60;76.00
63047;DHT22;62025;39.238;9.126;2023-02-28T11:07:18;11.70;73.50
63047;DHT22;62025;39.238;9.126;2023-02-28T11:09:52;11.50;72.70
63047;DHT22;62025;39.238;9.126;2023-02-28T11:12:26;11.50;70.40
63047;DHT22;62025;39.238;9.126;2023-02-28T11:18:02;11.60;70.50
63047;DHT22;62025;39.238;9.126;2023-02-28T11:20:34;11.50;70.20
63047;DHT22;62025;39.238;9.126;2023-02-28T11:23:02;11.60;69.40
63047;DHT22;62025;39.238;9.126;2023-02-28T11:25:32;11.60;68.90
63047;DHT22;62025;39.238;9.126;2023-02-28T11:28:02;11.50;69.20
63047;DHT22;62025;39.238;9.126;2023-02-28T11:33:37;11.60;69.20
63047;DHT22;62025;39.238;9.126;2023-02-28T11:36:31;11.70;69.80
63047;DHT22;62025;39.238;9.126;2023-02-28T11:39:07;11.80;68.90
63047;DHT22;62025;39.238;9.126;2023-02-28T11:44:33;11.80;67.60
63047;DHT22;62025;39.238;9.126;2023-02-28T11:52:52;11.70;66.80
63047;DHT22;62025;39.238;9.126;2023-02-28T11:55:32;11.80;68.10
63047;DHT22;62025;39.238;9.126;2023-02-28T12:09:44;11.80;66.20
63047;DHT22;62025;39.238;9.126;2023-02-28T12:12:38;11.80;65.90
63047;DHT22;62025;39.238;9.126;2023-02-28T12:15:16;11.80;66.00
63047;DHT22;62025;39.238;9.126;2023-02-28T12:21:23;11.80;65.80
63047;DHT22;62025;39.238;9.126;2023-02-28T12:23:50;11.70;65.50
63047;DHT22;62025;39.238;9.126;2023-02-28T12:26:41;11.80;65.40
63047;DHT22;62025;39.238;9.126;2023-02-28T12:29:19;11.80;66.30
63047;DHT22;62025;39.238;9.126;2023-02-28T12:31:53;11.80;65.50
63047;DHT22;62025;39.238;9.126;2023-02-28T12:34:27;11.80;66.40
63047;DHT22;62025;39.238;9.126;2023-02-28T12:36:58;11.80;64.40
63047;DHT22;62025;39.238;9.126;2023-02-28T12:39:33;11.80;65.70
63047;DHT22;62025;39.238;9.126;2023-02-28T12:42:10;11.90;65.70
63047;DHT22;62025;39.238;9.126;2023-02-28T12:45:03;11.80;65.30
63047;DHT22;62025;39.238;9.126;2023-02-28T12:47:42;11.80;65.80
63047;DHT22;62025;39.238;9.126;2023-02-28T12:50:10;11.80;65.20
63047;DHT22;62025;39.238;9.126;2023-02-28T12:52:41;11.80;65.60
63047;DHT22;62025;39.238;9.126;2023-02-28T13:09:39;11.80;66.40
63047;DHT22;62025;39.238;9.126;2023-02-28T13:12:15;11.80;65.90
63047;DHT22;62025;39.238;9.126;2023-02-28T13:14:42;11.80;66.00
63047;DHT22;62025;39.238;9.126;2023-02-28T13:24:53;11.90;66.60
63047;DHT22;62025;39.238;9.126;2023-02-28T13:27:40;11.90;66.90
63047;DHT22;62025;39.238;9.126;2023-02-28T13:33:32;12.20;67.50
63047;DHT22;62025;39.238;9.126;2023-02-28T13:36:27;11.80;69.10
63047;DHT22;62025;39.238;9.126;2023-02-28T13:38:59;11.80;69.90
63047;DHT22;62025;39.238;9.126;2023-02-28T13:49:25;11.20;71.40
63047;DHT22;62025;39.238;9.126;2023-02-28T13:57:34;11.30;72.90
63047;DHT22;62025;39.238;9.126;2023-02-28T14:06:18;11.40;72.60
63047;DHT22;62025;39.238;9.126;2023-02-28T14:09:25;11.40;71.90
63047;DHT22;62025;39.238;9.126;2023-02-28T14:11:52;11.50;71.80
63047;DHT22;62025;39.238;9.126;2023-02-28T14:17:15;11.50;70.20
63047;DHT22;62025;39.238;9.126;2023-02-28T14:19:44;11.60;69.90
63047;DHT22;62025;39.238;9.126;2023-02-28T14:22:42;11.60;69.90
63047;DHT22;62025;39.238;9.126;2023-02-28T14:28:27;11.60;71.00
63047;DHT22;62025;39.238;9.126;2023-02-28T14:31:09;11.50;71.70
63047;DHT22;62025;39.238;9.126;2023-02-28T14:34:03;11.50;72.30
63047;DHT22;62025;39.238;9.126;2023-02-28T14:36:40;11.50;73.10
63047;DHT22;62025;39.238;9.126;2023-02-28T14:39:14;11.60;73.00
63047;DHT22;62025;39.238;9.126;2023-02-28T14:41:43;11.60;73.00
63047;DHT22;62025;39.238;9.126;2023-02-28T14:44:24;11.60;73.00
63047;DHT22;62025;39.238;9.126;2023-02-28T14:47:00;11.60;72.60
63047;DHT22;62025;39.238;9.126;2023-02-28T14:49:43;11.50;72.50
63047;DHT22;62025;39.238;9.126;2023-02-28T14:52:19;11.60;72.80
63047;DHT22;62025;39.238;9.126;2023-02-28T14:54:59;11.50;72.40
63047;DHT22;62025;39.238;9.126;2023-02-28T14:57:41;11.40;72.80
63047;DHT22;62025;39.238;9.126;2023-02-28T15:00:30;11.30;73.30
63047;DHT22;62025;39.238;9.126;2023-02-28T15:02:59;11.20;73.90
63047;DHT22;62025;39.238;9.126;2023-02-28T15:05:33;11.10;74.30
63047;DHT22;62025;39.238;9.126;2023-02-28T15:08:12;10.90;74.80
63047;DHT22;62025;39.238;9.126;2023-02-28T15:11:13;10.80;74.50
63047;DHT22;62025;39.238;9.126;2023-02-28T15:13:44;10.90;74.80
63047;DHT22;62025;39.238;9.126;2023-02-28T15:16:22;10.90;75.10
63047;DHT22;62025;39.238;9.126;2023-02-28T15:21:32;11.10;74.50
63047;DHT22;62025;39.238;9.126;2023-02-28T15:26:53;11.10;74.10
63047;DHT22;62025;39.238;9.126;2023-02-28T15:29:23;11.20;73.90
63047;DHT22;62025;39.238;9.126;2023-02-28T15:32:04;11.10;73.50
63047;DHT22;62025;39.238;9.126;2023-02-28T15:34:40;11.10;73.50
63047;DHT22;62025;39.238;9.126;2023-02-28T15:37:45;11.20;72.90
63047;DHT22;62025;39.238;9.126;2023-02-28T15:45:41;11.30;72.40
63047;DHT22;62025;39.238;9.126;2023-02-28T15:50:50;11.20;72.50
63047;DHT22;62025;39.238;9.126;2023-02-28T15:53:25;11.20;72.40
63047;DHT22;62025;39.238;9.126;2023-02-28T15:56:02;11.20;72.50
63047;DHT22;62025;39.238;9.126;2023-02-28T15:58:31;11.20;72.60
63047;DHT22;62025;39.238;9.126;2023-02-28T16:04:18;11.20;72.10
63047;DHT22;62025;39.238;9.126;2023-02-28T16:06:59;11.20;72.80
63047;DHT22;62025;39.238;9.126;2023-02-28T16:09:29;11.10;73.00
63047;DHT22;62025;39.238;9.126;2023-02-28T16:12:00;11.10;73.10
63047;DHT22;62025;39.238;9.126;2023-02-28T16:14:28;11.20;73.10
63047;DHT22;62025;39.238;9.126;2023-02-28T16:17:22;11.30;73.10
63047;DHT22;62025;39.238;9.126;2023-02-28T16:19:52;11.20;72.50
63047;DHT22;62025;39.238;9.126;2023-02-28T16:22:18;11.20;72.30
63047;DHT22;62025;39.238;9.126;2023-02-28T16:24:44;11.10;72.40
63047;DHT22;62025;39.238;9.126;2023-02-28T16:27:25;11.20;72.70
63047;DHT22;62025;39.238;9.126;2023-02-28T16:29:55;11.00;72.30
63047;DHT22;62025;39.238;9.126;2023-02-28T16:32:21;10.90;72.60
63047;DHT22;62025;39.238;9.126;2023-02-28T16:34:47;11.00;73.00
63047;DHT22;62025;39.238;9.126;2023-02-28T16:37:15;10.80;73.00
63047;DHT22;62025;39.238;9.126;2023-02-28T16:39:44;10.60;73.60
63047;DHT22;62025;39.238;9.126;2023-02-28T16:42:26;10.80;73.60
63047;DHT22;62025;39.238;9.126;2023-02-28T16:44:53;10.80;73.40
63047;DHT22;62025;39.238;9.126;2023-02-28T16:47:20;10.80;73.10
63047;DHT22;62025;39.238;9.126;2023-02-28T16:49:47;10.80;73.20
63047;DHT22;62025;39.238;9.126;2023-02-28T16:52:14;10.80;73.00
63047;DHT22;62025;39.238;9.126;2023-02-28T16:54:41;10.80;73.50
63047;DHT22;62025;39.238;9.126;2023-02-28T16:57:19;10.80;73.50
63047;DHT22;62025;39.238;9.126;2023-02-28T16:59:48;10.80;73.50
63047;DHT22;62025;39.238;9.126;2023-02-28T17:02:16;10.80;72.90
63047;DHT22;62025;39.238;9.126;2023-02-28T17:04:45;10.90;72.50
63047;DHT22;62025;39.238;9.126;2023-02-28T17:07:14;10.90;72.90
63047;DHT22;62025;39.238;9.126;2023-02-28T17:09:45;10.80;73.40
63047;DHT22;62025;39.238;9.126;2023-02-28T17:12:11;10.80;72.80
63047;DHT22;62025;39.238;9.126;2023-02-28T17:14:37;10.80;73.00
63047;DHT22;62025;39.238;9.126;2023-02-28T17:17:07;10.90;73.50
63047;DHT22;62025;39.238;9.126;2023-02-28T17:19:33;10.90;73.10
63047;DHT22;62025;39.238;9.126;2023-02-28T17:22:01;10.90;72.70
63047;DHT22;62025;39.238;9.126;2023-02-28T17:24:28;10.80;72.80
63047;DHT22;62025;39.238;9.126;2023-02-28T17:26:54;10.80;72.70
63047;DHT22;62025;39.238;9.126;2023-02-28T17:29:21;10.80;72.50
63047;DHT22;62025;39.238;9.126;2023-02-28T17:31:47;10.80;72.80
63047;DHT22;62025;39.238;9.126;2023-02-28T17:34:13;10.80;72.40
63047;DHT22;62025;39.238;9.126;2023-02-28T17:36:45;10.80;72.30
63047;DHT22;62025;39.238;9.126;2023-02-28T17:39:13;10.80;72.50
63047;DHT22;62025;39.238;9.126;2023-02-28T17:41:42;10.70;72.40
63047;DHT22;62025;39.238;9.126;2023-02-28T17:44:08;10.80;73.00
63047;DHT22;62025;39.238;9.126;2023-02-28T17:46:35;10.80;73.20
63047;DHT22;62025;39.238;9.126;2023-02-28T17:49:01;10.80;73.10
63047;DHT22;62025;39.238;9.126;2023-02-28T17:51:28;10.70;73.90
63047;DHT22;62025;39.238;9.126;2023-02-28T17:53:54;10.60;73.50
63047;DHT22;62025;39.238;9.126;2023-02-28T17:56:22;10.80;73.10
63047;DHT22;62025;39.238;9.126;2023-02-28T17:58:50;10.70;73.00
63047;DHT22;62025;39.238;9.126;2023-02-28T18:01:17;10.70;73.20
63047;DHT22;62025;39.238;9.126;2023-02-28T18:03:44;10.80;73.10
63047;DHT22;62025;39.238;9.126;2023-02-28T18:06:15;10.70;73.30
63047;DHT22;62025;39.238;9.126;2023-02-28T18:08:44;10.80;73.50
63047;DHT22;62025;39.238;9.126;2023-02-28T18:11:10;10.80;73.40
63047;DHT22;62025;39.238;9.126;2023-02-28T18:13:44;10.70;73.40
63047;DHT22;62025;39.238;9.126;2023-02-28T18:16:12;10.80;73.40
63047;DHT22;62025;39.238;9.126;2023-02-28T18:18:38;10.80;73.80
63047;DHT22;62025;39.238;9.126;2023-02-28T18:21:05;10.80;73.80
63047;DHT22;62025;39.238;9.126;2023-02-28T18:23:32;10.80;73.90
63047;DHT22;62025;39.238;9.126;2023-02-28T18:25:58;10.80;73.60
63047;DHT22;62025;39.238;9.126;2023-02-28T18:28:24;10.60;73.00
63047;DHT22;62025;39.238;9.126;2023-02-28T18:30:50;10.50;73.00
63047;DHT22;62025;39.238;9.126;2023-02-28T18:33:16;10.50;72.70